sensor_id;sensor_type;location;lat;lon;timestamp;temperature;humidity
7622;DHT22;3852;52.284;8.032;2022-07-29T00:00:08;17.20;99.90
7622;DHT22;3852;52.284;8.032;2022-07-29T00:02:34;17.20;99.90
7622;DHT22;3852;52.284;8.032;2022-07-29T00:05:01;17.20;99.90
7622;DHT22;3852;52.284;8.032;2022-07-29T00:07:27;17.20;99.90
7622;DHT22;3852;52.284;8.032;2022-07-29T00:09:53;17.20;99.90
7622;DHT22;3852;52.284;8.032;2022-07-29T00:12:21;17.20;99.90
7622;DHT22;3852;52.284;8.032;2022-07-29T00:14:48;17.30;99.90
7622;DHT22;3852;52.284;8.032;2022-07-29T00:17:14;17.20;99.90
7622;DHT22;3852;52.284;8.032;2022-07-29T00:19:40;17.30;99.90
7622;DHT22;3852;52.284;8.032;2022-07-29T00:22:06;17.20;99.90
7622;DHT22;3852;52.284;8.032;2022-07-29T00:24:31;17.20;99.90
7622;DHT22;3852;52.284;8.032;2022-07-29T00:26:57;17.20;99.90
7622;DHT22;3852;52.284;8.032;2022-07-29T00:29:23;17.20;99.90
7622;DHT22;3852;52.284;8.032;2022-07-29T00:31:49;17.20;99.90
7622;DHT22;3852;52.284;8.032;2022-07-29T00:34:15;17.10;99.90
7622;DHT22;3852;52.284;8.032;2022-07-29T00:37:04;17.10;99.90
7622;DHT22;3852;52.284;8.032;2022-07-29T00:39:30;17.20;99.90
7622;DHT22;3852;52.284;8.032;2022-07-29T00:41:56;17.10;99.90
7622;DHT22;3852;52.284;8.032;2022-07-29T00:44:21;17.10;99.90
7622;DHT22;3852;52.284;8.032;2022-07-29T00:46:47;17.00;99.90
7622;DHT22;3852;52.284;8.032;2022-07-29T00:49:13;17.00;99.90
7622;DHT22;3852;52.284;8.032;2022-07-29T00:51:39;17.00;99.90
7622;DHT22;3852;52.284;8.032;2022-07-29T00:54:05;17.10;99.90
7622;DHT22;3852;52.284;8.032;2022-07-29T00:56:32;17.00;99.90
7622;DHT22;3852;52.284;8.032;2022-07-29T00:58:59;17.00;99.90
7622;DHT22;3852;52.284;8.032;2022-07-29T01:01:26;16.90;99.90
7622;DHT22;3852;52.284;8.032;2022-07-29T01:03:52;17.00;99.90
7622;DHT22;3852;52.284;8.032;2022-07-29T01:06:19;17.10;99.90
7622;DHT22;3852;52.284;8.032;2022-07-29T01:08:47;17.10;99.90
7622;DHT22;3852;52.284;8.032;2022-07-29T01:11:15;17.00;99.90
7622;DHT22;3852;52.284;8.032;2022-07-29T01:13:43;17.00;99.90
7622;DHT22;3852;52.284;8.032;2022-07-29T01:16:59;16.90;99.90
7622;DHT22;3852;52.284;8.032;2022-07-29T01:19:45;16.90;99.90
7622;DHT22;3852;52.284;8.032;2022-07-29T01:30:58;16.90;99.90
7622;DHT22;3852;52.284;8.032;2022-07-29T01:33:29;16.90;99.90
7622;DHT22;3852;52.284;8.032;2022-07-29T01:36:35;16.80;99.90
7622;DHT22;3852;52.284;8.032;2022-07-29T01:39:10;16.80;99.90
7622;DHT22;3852;52.284;8.032;2022-07-29T01:41:43;16.70;99.90
7622;DHT22;3852;52.284;8.032;2022-07-29T01:44:20;16.70;99.90
7622;DHT22;3852;52.284;8.032;2022-07-29T01:47:02;16.70;99.90
7622;DHT22;3852;52.284;8.032;2022-07-29T01:49:36;16.70;99.90
7622;DHT22;3852;52.284;8.032;2022-07-29T01:52:08;16.70;99.90
7622;DHT22;3852;52.284;8.032;2022-07-29T01:54:49;16.70;99.90
7622;DHT22;3852;52.284;8.032;2022-07-29T01:57:18;16.70;99.90
7622;DHT22;3852;52.284;8.032;2022-07-29T01:59:46;16.70;99.90
7622;DHT22;3852;52.284;8.032;2022-07-29T02:02:15;16.70;99.90
7622;DHT22;3852;52.284;8.032;2022-07-29T02:04:43;16.70;99.90
7622;DHT22;3852;52.284;8.032;2022-07-29T02:07:17;16.60;99.90
7622;DHT22;3852;52.284;8.032;2022-07-29T02:09:46;16.70;99.90
7622;DHT22;3852;52.284;8.032;2022-07-29T02:12:14;16.60;99.90
7622;DHT22;3852;52.284;8.032;2022-07-29T02:14:49;16.60;99.90
7622;DHT22;3852;52.284;8.032;2022-07-29T02:17:22;16.70;99.90
7622;DHT22;3852;52.284;8.032;2022-07-29T02:19:52;16.60;99.90
7622;DHT22;3852;52.284;8.032;2022-07-29T02:22:23;16.60;99.90
7622;DHT22;3852;52.284;8.032;2022-07-29T02:24:50;16.60;99.90
7622;DHT22;3852;52.284;8.032;2022-07-29T02:27:19;16.60;99.90
7622;DHT22;3852;52.284;8.032;2022-07-29T02:29:46;16.50;99.90
7622;DHT22;3852;52.284;8.032;2022-07-29T02:32:13;16.60;99.90
7622;DHT22;3852;52.284;8.032;2022-07-29T02:34:41;16.60;99.90
7622;DHT22;3852;52.284;8.032;2022-07-29T02:37:10;16.50;99.90
7622;DHT22;3852;52.284;8.032;2022-07-29T02:39:37;16.50;99.90
7622;DHT22;3852;52.284;8.032;2022-07-29T02:42:07;16.40;99.90
7622;DHT22;3852;52.284;8.032;2022-07-29T02:44:35;16.40;99.90
7622;DHT22;3852;52.284;8.032;2022-07-29T02:52:41;16.40;99.90
7622;DHT22;3852;52.284;8.032;2022-07-29T02:55:30;16.50;99.90
7622;DHT22;3852;52.284;8.032;2022-07-29T02:58:03;16.50;99.90
7622;DHT22;3852;52.284;8.032;2022-07-29T03:00:36;16.40;99.90
7622;DHT22;3852;52.284;8.032;2022-07-29T03:03:10;16.40;99.90
7622;DHT22;3852;52.284;8.032;2022-07-29T03:05:39;16.50;99.90
7622;DHT22;3852;52.284;8.032;2022-07-29T03:08:08;16.50;99.90
7622;DHT22;3852;52.284;8.032;2022-07-29T03:10:37;16.50;99.90
7622;DHT22;3852;52.284;8.032;2022-07-29T03:13:05;16.60;99.90
7622;DHT22;3852;52.284;8.032;2022-07-29T03:15:32;16.60;99.90
7622;DHT22;3852;52.284;8.032;2022-07-29T03:17:58;16.50;99.90
7622;DHT22;3852;52.284;8.032;2022-07-29T03:20:25;16.40;99.90
7622;DHT22;3852;52.284;8.032;2022-07-29T03:22:51;16.50;99.90
7622;DHT22;3852;52.284;8.032;2022-07-29T03:25:19;16.40;99.90
7622;DHT22;3852;52.284;8.032;2022-07-29T03:27:47;16.30;99.90
7622;DHT22;3852;52.284;8.032;2022-07-29T03:30:14;16.20;99.90
7622;DHT22;3852;52.284;8.032;2022-07-29T03:32:41;16.30;99.90
7622;DHT22;3852;52.284;8.032;2022-07-29T03:35:07;16.30;99.90
7622;DHT22;3852;52.284;8.032;2022-07-29T03:37:34;16.30;99.90
7622;DHT22;3852;52.284;8.032;2022-07-29T03:40:03;16.30;99.90
7622;DHT22;3852;52.284;8.032;2022-07-29T03:42:33;16.40;99.90
7622;DHT22;3852;52.284;8.032;2022-07-29T03:45:03;16.40;99.90
7622;DHT22;3852;52.284;8.032;2022-07-29T03:47:33;16.30;99.90
7622;DHT22;3852;52.284;8.032;2022-07-29T03:50:05;16.30;99.90
7622;DHT22;3852;52.284;8.032;2022-07-29T03:52:32;16.20;99.90
7622;DHT22;3852;52.284;8.032;2022-07-29T03:54:58;16.10;99.90
7622;DHT22;3852;52.284;8.032;2022-07-29T03:57:27;16.10;99.90
7622;DHT22;3852;52.284;8.032;2022-07-29T03:59:54;16.00;99.90
7622;DHT22;3852;52.284;8.032;2022-07-29T04:02:20;16.10;99.90
7622;DHT22;3852;52.284;8.032;2022-07-29T04:04:47;16.10;99.90
7622;DHT22;3852;52.284;8.032;2022-07-29T04:07:13;16.30;99.90
7622;DHT22;3852;52.284;8.032;2022-07-29T04:09:42;16.30;99.90
7622;DHT22;3852;52.284;8.032;2022-07-29T04:12:08;16.40;99.90
7622;DHT22;3852;52.284;8.032;2022-07-29T04:14:34;16.40;99.90
7622;DHT22;3852;52.284;8.032;2022-07-29T04:17:01;16.20;99.90
7622;DHT22;3852;52.284;8.032;2022-07-29T04:19:28;16.20;99.90
7622;DHT22;3852;52.284;8.032;2022-07-29T04:21:54;16.10;99.90
7622;DHT22;3852;52.284;8.032;2022-07-29T04:24:20;16.10;99.90
7622;DHT22;3852;52.284;8.032;2022-07-29T04:26:46;16.20;99.90
7622;DHT22;3852;52.284;8.032;2022-07-29T04:29:13;16.40;99.90
7622;DHT22;3852;52.284;8.032;2022-07-29T04:31:42;16.20;99.90
7622;DHT22;3852;52.284;8.032;2022-07-29T04:34:08;16.20;99.90
7622;DHT22;3852;52.284;8.032;2022-07-29T04:36:35;16.30;99.90
7622;DHT22;3852;52.284;8.032;2022-07-29T04:39:01;16.30;99.90
7622;DHT22;3852;52.284;8.032;2022-07-29T04:41:27;16.40;99.90
7622;DHT22;3852;52.284;8.032;2022-07-29T04:43:53;16.60;99.90
7622;DHT22;3852;52.284;8.032;2022-07-29T04:46:19;16.50;99.90
7622;DHT22;3852;52.284;8.032;2022-07-29T04:48:46;16.60;99.90
7622;DHT22;3852;52.284;8.032;2022-07-29T04:51:13;16.40;99.90
7622;DHT22;3852;52.284;8.032;2022-07-29T04:53:39;16.40;99.90
7622;DHT22;3852;52.284;8.032;2022-07-29T04:56:07;16.30;99.90
7622;DHT22;3852;52.284;8.032;2022-07-29T04:58:36;16.10;99.90
7622;DHT22;3852;52.284;8.032;2022-07-29T05:01:03;16.20;99.90
7622;DHT22;3852;52.284;8.032;2022-07-29T05:03:29;16.30;99.90
7622;DHT22;3852;52.284;8.032;2022-07-29T05:05:55;16.20;99.90
7622;DHT22;3852;52.284;8.032;2022-07-29T05:08:21;16.30;99.90
7622;DHT22;3852;52.284;8.032;2022-07-29T05:10:47;16.30;99.90
7622;DHT22;3852;52.284;8.032;2022-07-29T05:13:13;16.20;99.90
7622;DHT22;3852;52.284;8.032;2022-07-29T05:15:39;16.20;99.90
7622;DHT22;3852;52.284;8.032;2022-07-29T05:18:05;16.30;99.90
7622;DHT22;3852;52.284;8.032;2022-07-29T05:20:31;16.40;99.90
7622;DHT22;3852;52.284;8.032;2022-07-29T05:22:59;16.40;99.90
7622;DHT22;3852;52.284;8.032;2022-07-29T05:25:27;16.40;99.90
7622;DHT22;3852;52.284;8.032;2022-07-29T05:27:53;16.40;99.90
7622;DHT22;3852;52.284;8.032;2022-07-29T05:30:19;16.40;99.90
7622;DHT22;3852;52.284;8.032;2022-07-29T05:32:45;16.40;99.90
7622;DHT22;3852;52.284;8.032;2022-07-29T05:35:12;16.50;99.90
7622;DHT22;3852;52.284;8.032;2022-07-29T05:37:38;16.50;99.90
7622;DHT22;3852;52.284;8.032;2022-07-29T05:40:05;16.50;99.90
7622;DHT22;3852;52.284;8.032;2022-07-29T05:42:31;16.50;99.90
7622;DHT22;3852;52.284;8.032;2022-07-29T05:44:57;16.50;99.90
7622;DHT22;3852;52.284;8.032;2022-07-29T05:47:23;16.50;99.90
7622;DHT22;3852;52.284;8.032;2022-07-29T05:49:49;16.50;99.90
7622;DHT22;3852;52.284;8.032;2022-07-29T05:52:16;16.60;99.90
7622;DHT22;3852;52.284;8.032;2022-07-29T05:54:44;16.40;99.90
7622;DHT22;3852;52.284;8.032;2022-07-29T05:59:43;16.50;99.90
7622;DHT22;3852;52.284;8.032;2022-07-29T06:02:09;16.60;99.90
7622;DHT22;3852;52.284;8.032;2022-07-29T06:04:35;16.70;99.90
7622;DHT22;3852;52.284;8.032;2022-07-29T06:07:01;16.70;99.90
7622;DHT22;3852;52.284;8.032;2022-07-29T06:09:27;16.70;99.90
7622;DHT22;3852;52.284;8.032;2022-07-29T06:11:53;16.90;99.90
7622;DHT22;3852;52.284;8.032;2022-07-29T06:14:19;17.00;99.90
7622;DHT22;3852;52.284;8.032;2022-07-29T06:16:45;16.90;99.90
7622;DHT22;3852;52.284;8.032;2022-07-29T06:19:11;17.10;99.90
7622;DHT22;3852;52.284;8.032;2022-07-29T06:21:41;17.10;99.90
7622;DHT22;3852;52.284;8.032;2022-07-29T06:24:11;17.30;99.90
7622;DHT22;3852;52.284;8.032;2022-07-29T06:26:38;17.30;99.90
7622;DHT22;3852;52.284;8.032;2022-07-29T06:29:05;17.40;99.90
7622;DHT22;3852;52.284;8.032;2022-07-29T06:31:31;17.70;99.90
7622;DHT22;3852;52.284;8.032;2022-07-29T06:33:57;17.80;99.90
7622;DHT22;3852;52.284;8.032;2022-07-29T06:36:23;17.90;99.90
7622;DHT22;3852;52.284;8.032;2022-07-29T06:38:49;17.90;99.90
7622;DHT22;3852;52.284;8.032;2022-07-29T06:41:17;18.00;99.90
7622;DHT22;3852;52.284;8.032;2022-07-29T06:43:43;18.10;99.90
7622;DHT22;3852;52.284;8.032;2022-07-29T06:46:15;18.40;99.90
7622;DHT22;3852;52.284;8.032;2022-07-29T06:48:43;18.50;99.90
7622;DHT22;3852;52.284;8.032;2022-07-29T06:51:10;18.60;99.90
7622;DHT22;3852;52.284;8.032;2022-07-29T06:53:40;18.70;99.90
7622;DHT22;3852;52.284;8.032;2022-07-29T06:56:06;18.70;99.90
7622;DHT22;3852;52.284;8.032;2022-07-29T06:58:40;18.80;99.90
7622;DHT22;3852;52.284;8.032;2022-07-29T07:01:06;18.90;99.90
7622;DHT22;3852;52.284;8.032;2022-07-29T07:03:32;18.90;99.90
7622;DHT22;3852;52.284;8.032;2022-07-29T07:05:59;19.10;99.90
7622;DHT22;3852;52.284;8.032;2022-07-29T07:08:25;19.10;99.90
7622;DHT22;3852;52.284;8.032;2022-07-29T07:10:51;19.10;99.90
7622;DHT22;3852;52.284;8.032;2022-07-29T07:13:18;19.20;99.90
7622;DHT22;3852;52.284;8.032;2022-07-29T07:15:45;19.10;99.90
7622;DHT22;3852;52.284;8.032;2022-07-29T07:18:13;19.50;99.90
7622;DHT22;3852;52.284;8.032;2022-07-29T07:20:39;19.40;99.90
7622;DHT22;3852;52.284;8.032;2022-07-29T07:23:04;19.50;99.90
7622;DHT22;3852;52.284;8.032;2022-07-29T07:25:31;19.50;99.90
7622;DHT22;3852;52.284;8.032;2022-07-29T07:27:56;19.50;99.90
7622;DHT22;3852;52.284;8.032;2022-07-29T07:30:22;19.50;99.90
7622;DHT22;3852;52.284;8.032;2022-07-29T07:32:48;19.40;99.90
7622;DHT22;3852;52.284;8.032;2022-07-29T07:35:14;19.50;99.90
7622;DHT22;3852;52.284;8.032;2022-07-29T07:37:40;19.50;99.90
7622;DHT22;3852;52.284;8.032;2022-07-29T07:40:07;19.60;99.90
7622;DHT22;3852;52.284;8.032;2022-07-29T07:42:34;19.60;99.90
7622;DHT22;3852;52.284;8.032;2022-07-29T07:45:00;19.60;99.90
7622;DHT22;3852;52.284;8.032;2022-07-29T07:47:26;19.70;99.90
7622;DHT22;3852;52.284;8.032;2022-07-29T07:49:52;20.00;99.90
7622;DHT22;3852;52.284;8.032;2022-07-29T07:52:20;20.00;99.90
7622;DHT22;3852;52.284;8.032;2022-07-29T07:54:47;20.20;99.90
7622;DHT22;3852;52.284;8.032;2022-07-29T07:57:14;20.40;99.90
7622;DHT22;3852;52.284;8.032;2022-07-29T07:59:40;20.60;99.90
7622;DHT22;3852;52.284;8.032;2022-07-29T08:02:07;20.60;99.90
7622;DHT22;3852;52.284;8.032;2022-07-29T08:04:34;20.50;99.90
7622;DHT22;3852;52.284;8.032;2022-07-29T08:07:00;20.50;99.90
7622;DHT22;3852;52.284;8.032;2022-07-29T08:09:27;20.60;99.90
7622;DHT22;3852;52.284;8.032;2022-07-29T08:11:54;20.60;99.90
7622;DHT22;3852;52.284;8.032;2022-07-29T08:14:20;20.60;99.90
7622;DHT22;3852;52.284;8.032;2022-07-29T08:16:47;20.60;99.90
7622;DHT22;3852;52.284;8.032;2022-07-29T08:19:13;20.60;99.90
7622;DHT22;3852;52.284;8.032;2022-07-29T08:21:39;20.60;99.90
7622;DHT22;3852;52.284;8.032;2022-07-29T08:24:05;20.60;99.90
7622;DHT22;3852;52.284;8.032;2022-07-29T08:26:50;20.70;99.90
7622;DHT22;3852;52.284;8.032;2022-07-29T08:29:16;20.70;99.90
7622;DHT22;3852;52.284;8.032;2022-07-29T08:31:42;20.80;99.90
7622;DHT22;3852;52.284;8.032;2022-07-29T08:34:08;20.70;99.90
7622;DHT22;3852;52.284;8.032;2022-07-29T08:36:35;20.80;99.90
7622;DHT22;3852;52.284;8.032;2022-07-29T08:39:02;20.80;99.90
7622;DHT22;3852;52.284;8.032;2022-07-29T08:41:28;20.80;99.90
7622;DHT22;3852;52.284;8.032;2022-07-29T08:43:55;20.80;99.90
7622;DHT22;3852;52.284;8.032;2022-07-29T08:46:21;20.70;99.90
7622;DHT22;3852;52.284;8.032;2022-07-29T08:48:47;20.80;99.90
7622;DHT22;3852;52.284;8.032;2022-07-29T08:51:18;20.70;99.90
7622;DHT22;3852;52.284;8.032;2022-07-29T08:53:47;20.70;99.90
7622;DHT22;3852;52.284;8.032;2022-07-29T08:56:18;20.70;99.90
7622;DHT22;3852;52.284;8.032;2022-07-29T08:58:48;21.00;99.90
7622;DHT22;3852;52.284;8.032;2022-07-29T09:01:21;21.40;99.90
7622;DHT22;3852;52.284;8.032;2022-07-29T09:03:49;21.60;99.90
7622;DHT22;3852;52.284;8.032;2022-07-29T09:06:18;21.90;99.90
7622;DHT22;3852;52.284;8.032;2022-07-29T09:08:44;22.10;99.90
7622;DHT22;3852;52.284;8.032;2022-07-29T09:11:11;22.20;99.90
7622;DHT22;3852;52.284;8.032;2022-07-29T09:13:37;22.30;99.90
7622;DHT22;3852;52.284;8.032;2022-07-29T09:16:03;22.40;99.90
7622;DHT22;3852;52.284;8.032;2022-07-29T09:18:44;22.30;99.90
7622;DHT22;3852;52.284;8.032;2022-07-29T09:21:12;22.40;99.90
7622;DHT22;3852;52.284;8.032;2022-07-29T09:26:39;22.30;99.90
7622;DHT22;3852;52.284;8.032;2022-07-29T09:29:12;22.30;99.90
7622;DHT22;3852;52.284;8.032;2022-07-29T09:31:41;22.40;99.90
7622;DHT22;3852;52.284;8.032;2022-07-29T09:34:14;22.50;99.90
7622;DHT22;3852;52.284;8.032;2022-07-29T09:36:47;22.60;99.90
7622;DHT22;3852;52.284;8.032;2022-07-29T09:39:15;22.50;99.90
7622;DHT22;3852;52.284;8.032;2022-07-29T09:41:54;22.60;99.90
7622;DHT22;3852;52.284;8.032;2022-07-29T09:44:23;22.60;99.90
7622;DHT22;3852;52.284;8.032;2022-07-29T09:47:01;22.60;99.90
7622;DHT22;3852;52.284;8.032;2022-07-29T09:49:35;22.60;99.90
7622;DHT22;3852;52.284;8.032;2022-07-29T09:52:09;22.60;99.90
7622;DHT22;3852;52.284;8.032;2022-07-29T09:54:36;22.70;99.90
7622;DHT22;3852;52.284;8.032;2022-07-29T09:57:21;22.70;99.90
7622;DHT22;3852;52.284;8.032;2022-07-29T10:00:03;22.70;99.90
7622;DHT22;3852;52.284;8.032;2022-07-29T10:02:37;22.70;99.90
7622;DHT22;3852;52.284;8.032;2022-07-29T10:05:16;22.60;99.90
7622;DHT22;3852;52.284;8.032;2022-07-29T10:07:55;22.50;99.90
7622;DHT22;3852;52.284;8.032;2022-07-29T10:10:29;22.50;99.90
7622;DHT22;3852;52.284;8.032;2022-07-29T10:13:20;22.40;99.90
7622;DHT22;3852;52.284;8.032;2022-07-29T10:15:46;22.40;99.90
7622;DHT22;3852;52.284;8.032;2022-07-29T10:18:13;22.30;99.90
7622;DHT22;3852;52.284;8.032;2022-07-29T10:20:42;22.30;99.90
7622;DHT22;3852;52.284;8.032;2022-07-29T10:23:09;22.40;99.90
7622;DHT22;3852;52.284;8.032;2022-07-29T10:25:34;22.50;99.90
7622;DHT22;3852;52.284;8.032;2022-07-29T10:28:00;22.60;99.90
7622;DHT22;3852;52.284;8.032;2022-07-29T10:30:26;22.70;99.90
7622;DHT22;3852;52.284;8.032;2022-07-29T10:36:20;22.90;99.90
7622;DHT22;3852;52.284;8.032;2022-07-29T10:41:56;23.00;99.90
7622;DHT22;3852;52.284;8.032;2022-07-29T10:44:27;23.10;99.90
7622;DHT22;3852;52.284;8.032;2022-07-29T10:46:54;23.20;99.90
7622;DHT22;3852;52.284;8.032;2022-07-29T10:49:25;23.10;99.90
7622;DHT22;3852;52.284;8.032;2022-07-29T10:54:50;23.20;99.90
7622;DHT22;3852;52.284;8.032;2022-07-29T11:05:05;23.00;99.90
7622;DHT22;3852;52.284;8.032;2022-07-29T11:07:35;22.90;99.90
7622;DHT22;3852;52.284;8.032;2022-07-29T11:15:10;22.90;99.90
7622;DHT22;3852;52.284;8.032;2022-07-29T11:20:44;22.90;99.90
7622;DHT22;3852;52.284;8.032;2022-07-29T11:26:13;22.90;99.90
7622;DHT22;3852;52.284;8.032;2022-07-29T11:29:03;23.00;99.90
7622;DHT22;3852;52.284;8.032;2022-07-29T11:31:49;23.00;99.90
7622;DHT22;3852;52.284;8.032;2022-07-29T11:34:29;23.00;99.90
7622;DHT22;3852;52.284;8.032;2022-07-29T11:39:42;23.10;99.90
7622;DHT22;3852;52.284;8.032;2022-07-29T11:48:14;23.20;99.90
7622;DHT22;3852;52.284;8.032;2022-07-29T11:50:35;23.30;99.90
7622;DHT22;3852;52.284;8.032;2022-07-29T11:53:05;23.30;99.90
7622;DHT22;3852;52.284;8.032;2022-07-29T11:55:38;23.30;99.90
7622;DHT22;3852;52.284;8.032;2022-07-29T11:58:07;23.40;99.90
7622;DHT22;3852;52.284;8.032;2022-07-29T12:00:40;23.30;99.90
7622;DHT22;3852;52.284;8.032;2022-07-29T12:03:10;23.30;99.90
7622;DHT22;3852;52.284;8.032;2022-07-29T12:05:44;23.40;99.90
7622;DHT22;3852;52.284;8.032;2022-07-29T12:08:19;23.30;99.90
7622;DHT22;3852;52.284;8.032;2022-07-29T12:10:49;23.40;99.90
7622;DHT22;3852;52.284;8.032;2022-07-29T12:13:17;23.30;99.90
7622;DHT22;3852;52.284;8.032;2022-07-29T12:15:53;23.20;99.90
7622;DHT22;3852;52.284;8.032;2022-07-29T12:18:20;23.30;99.90
7622;DHT22;3852;52.284;8.032;2022-07-29T12:20:47;23.40;99.90
7622;DHT22;3852;52.284;8.032;2022-07-29T12:23:14;23.30;99.90
7622;DHT22;3852;52.284;8.032;2022-07-29T12:25:42;23.30;99.90
7622;DHT22;3852;52.284;8.032;2022-07-29T12:28:11;23.30;99.90
7622;DHT22;3852;52.284;8.032;2022-07-29T12:30:41;23.30;99.90
7622;DHT22;3852;52.284;8.032;2022-07-29T12:33:18;23.30;99.90
7622;DHT22;3852;52.284;8.032;2022-07-29T12:35:51;23.30;99.90
7622;DHT22;3852;52.284;8.032;2022-07-29T12:38:20;23.40;99.90
7622;DHT22;3852;52.284;8.032;2022-07-29T12:40:47;23.30;99.90
7622;DHT22;3852;52.284;8.032;2022-07-29T12:43:15;23.20;99.90
7622;DHT22;3852;52.284;8.032;2022-07-29T12:45:54;23.20;99.90
7622;DHT22;3852;52.284;8.032;2022-07-29T12:48:38;23.20;99.90
7622;DHT22;3852;52.284;8.032;2022-07-29T12:51:06;23.10;99.90
7622;DHT22;3852;52.284;8.032;2022-07-29T12:53:33;23.10;99.90
7622;DHT22;3852;52.284;8.032;2022-07-29T12:55:59;23.10;99.90
7622;DHT22;3852;52.284;8.032;2022-07-29T12:58:37;23.00;99.90
7622;DHT22;3852;52.284;8.032;2022-07-29T13:01:08;22.80;99.90
7622;DHT22;3852;52.284;8.032;2022-07-29T13:03:47;22.60;99.90
7622;DHT22;3852;52.284;8.032;2022-07-29T13:06:41;22.40;99.90
7622;DHT22;3852;52.284;8.032;2022-07-29T13:09:13;22.20;99.90
7622;DHT22;3852;52.284;8.032;2022-07-29T13:14:11;21.90;99.90
7622;DHT22;3852;52.284;8.032;2022-07-29T13:19:48;21.80;99.90
7622;DHT22;3852;52.284;8.032;2022-07-29T13:22:23;21.60;99.90
7622;DHT22;3852;52.284;8.032;2022-07-29T13:24:57;21.50;99.90
7622;DHT22;3852;52.284;8.032;2022-07-29T13:27:37;21.30;99.90
7622;DHT22;3852;52.284;8.032;2022-07-29T13:30:07;21.30;99.90
7622;DHT22;3852;52.284;8.032;2022-07-29T13:32:34;21.20;99.90
7622;DHT22;3852;52.284;8.032;2022-07-29T13:35:06;21.00;99.90
7622;DHT22;3852;52.284;8.032;2022-07-29T13:37:34;20.90;99.90
7622;DHT22;3852;52.284;8.032;2022-07-29T13:40:04;20.80;99.90
7622;DHT22;3852;52.284;8.032;2022-07-29T13:42:31;20.70;99.90
7622;DHT22;3852;52.284;8.032;2022-07-29T13:44:58;20.70;99.90
7622;DHT22;3852;52.284;8.032;2022-07-29T13:47:24;20.60;99.90
7622;DHT22;3852;52.284;8.032;2022-07-29T13:49:51;20.60;99.90
7622;DHT22;3852;52.284;8.032;2022-07-29T13:52:17;20.60;99.90
7622;DHT22;3852;52.284;8.032;2022-07-29T13:54:43;20.60;99.90
7622;DHT22;3852;52.284;8.032;2022-07-29T13:57:10;20.60;99.90
7622;DHT22;3852;52.284;8.032;2022-07-29T13:59:36;20.50;99.90
7622;DHT22;3852;52.284;8.032;2022-07-29T14:02:02;20.60;99.90
7622;DHT22;3852;52.284;8.032;2022-07-29T14:04:28;20.60;99.90
7622;DHT22;3852;52.284;8.032;2022-07-29T14:06:54;20.60;99.90
7622;DHT22;3852;52.284;8.032;2022-07-29T14:09:20;20.60;99.90
7622;DHT22;3852;52.284;8.032;2022-07-29T14:11:46;20.60;99.90
7622;DHT22;3852;52.284;8.032;2022-07-29T14:14:16;20.70;99.90
7622;DHT22;3852;52.284;8.032;2022-07-29T14:16:42;20.70;99.90
7622;DHT22;3852;52.284;8.032;2022-07-29T14:19:08;20.80;99.90
7622;DHT22;3852;52.284;8.032;2022-07-29T14:21:34;20.80;99.90
7622;DHT22;3852;52.284;8.032;2022-07-29T14:24:00;21.00;99.90
7622;DHT22;3852;52.284;8.032;2022-07-29T14:26:26;21.00;99.90
7622;DHT22;3852;52.284;8.032;2022-07-29T14:28:51;21.10;99.90
7622;DHT22;3852;52.284;8.032;2022-07-29T14:31:17;21.10;99.90
7622;DHT22;3852;52.284;8.032;2022-07-29T14:33:44;21.10;99.90
7622;DHT22;3852;52.284;8.032;2022-07-29T14:36:13;21.20;99.90
7622;DHT22;3852;52.284;8.032;2022-07-29T14:38:39;21.20;99.90
7622;DHT22;3852;52.284;8.032;2022-07-29T14:41:06;21.30;99.90
7622;DHT22;3852;52.284;8.032;2022-07-29T14:43:33;21.30;99.90
7622;DHT22;3852;52.284;8.032;2022-07-29T14:46:00;21.30;99.90
7622;DHT22;3852;52.284;8.032;2022-07-29T14:48:26;21.30;99.90
7622;DHT22;3852;52.284;8.032;2022-07-29T14:50:52;21.40;99.90
7622;DHT22;3852;52.284;8.032;2022-07-29T14:53:18;21.40;99.90
7622;DHT22;3852;52.284;8.032;2022-07-29T14:55:44;21.40;99.90
7622;DHT22;3852;52.284;8.032;2022-07-29T14:58:10;21.40;99.90
7622;DHT22;3852;52.284;8.032;2022-07-29T15:00:36;21.50;99.90
7622;DHT22;3852;52.284;8.032;2022-07-29T15:03:03;21.50;99.90
7622;DHT22;3852;52.284;8.032;2022-07-29T15:05:30;21.60;99.90
7622;DHT22;3852;52.284;8.032;2022-07-29T15:07:56;21.60;99.90
7622;DHT22;3852;52.284;8.032;2022-07-29T15:10:22;21.60;99.90
7622;DHT22;3852;52.284;8.032;2022-07-29T15:12:48;21.70;99.90
7622;DHT22;3852;52.284;8.032;2022-07-29T15:15:14;21.70;99.90
7622;DHT22;3852;52.284;8.032;2022-07-29T15:17:40;21.70;99.90
7622;DHT22;3852;52.284;8.032;2022-07-29T15:20:06;21.70;99.90
7622;DHT22;3852;52.284;8.032;2022-07-29T15:22:32;21.70;99.90
7622;DHT22;3852;52.284;8.032;2022-07-29T15:24:58;21.80;99.90
7622;DHT22;3852;52.284;8.032;2022-07-29T15:27:27;21.90;99.90
7622;DHT22;3852;52.284;8.032;2022-07-29T15:29:52;21.90;99.90
7622;DHT22;3852;52.284;8.032;2022-07-29T15:32:18;21.90;99.90
7622;DHT22;3852;52.284;8.032;2022-07-29T15:34:44;22.00;99.90
7622;DHT22;3852;52.284;8.032;2022-07-29T15:37:10;22.00;99.90
7622;DHT22;3852;52.284;8.032;2022-07-29T15:39:36;22.10;99.90
7622;DHT22;3852;52.284;8.032;2022-07-29T15:42:03;22.20;99.90
7622;DHT22;3852;52.284;8.032;2022-07-29T15:44:29;22.30;99.90
7622;DHT22;3852;52.284;8.032;2022-07-29T15:46:54;22.40;99.90
7622;DHT22;3852;52.284;8.032;2022-07-29T15:52:01;22.40;99.90
7622;DHT22;3852;52.284;8.032;2022-07-29T15:54:29;22.40;99.90
7622;DHT22;3852;52.284;8.032;2022-07-29T15:56:55;22.50;99.90
7622;DHT22;3852;52.284;8.032;2022-07-29T15:59:21;22.50;99.90
7622;DHT22;3852;52.284;8.032;2022-07-29T16:01:48;22.60;99.90
7622;DHT22;3852;52.284;8.032;2022-07-29T16:04:14;22.60;99.90
7622;DHT22;3852;52.284;8.032;2022-07-29T16:06:40;22.70;99.90
7622;DHT22;3852;52.284;8.032;2022-07-29T16:09:06;22.70;99.90
7622;DHT22;3852;52.284;8.032;2022-07-29T16:11:32;22.80;99.90
7622;DHT22;3852;52.284;8.032;2022-07-29T16:13:58;22.90;99.90
7622;DHT22;3852;52.284;8.032;2022-07-29T16:16:24;22.90;99.90
7622;DHT22;3852;52.284;8.032;2022-07-29T16:18:50;22.80;99.90
7622;DHT22;3852;52.284;8.032;2022-07-29T16:21:16;22.90;99.90
7622;DHT22;3852;52.284;8.032;2022-07-29T16:23:42;22.90;99.90
7622;DHT22;3852;52.284;8.032;2022-07-29T16:26:08;22.70;99.90
7622;DHT22;3852;52.284;8.032;2022-07-29T16:28:34;22.70;99.90
7622;DHT22;3852;52.284;8.032;2022-07-29T16:30:59;22.70;99.90
7622;DHT22;3852;52.284;8.032;2022-07-29T16:33:25;22.70;99.90
7622;DHT22;3852;52.284;8.032;2022-07-29T16:35:51;22.60;99.90
7622;DHT22;3852;52.284;8.032;2022-07-29T16:38:17;22.50;99.90
7622;DHT22;3852;52.284;8.032;2022-07-29T16:40:43;22.50;99.90
7622;DHT22;3852;52.284;8.032;2022-07-29T16:43:09;22.50;99.90
7622;DHT22;3852;52.284;8.032;2022-07-29T16:45:35;22.50;99.90
7622;DHT22;3852;52.284;8.032;2022-07-29T16:48:02;22.50;99.90
7622;DHT22;3852;52.284;8.032;2022-07-29T16:50:29;22.60;99.90
7622;DHT22;3852;52.284;8.032;2022-07-29T16:52:58;22.60;99.90
7622;DHT22;3852;52.284;8.032;2022-07-29T16:55:24;22.60;99.90
7622;DHT22;3852;52.284;8.032;2022-07-29T16:57:50;22.60;99.90
7622;DHT22;3852;52.284;8.032;2022-07-29T17:00:19;22.60;99.90
7622;DHT22;3852;52.284;8.032;2022-07-29T17:02:46;22.60;99.90
7622;DHT22;3852;52.284;8.032;2022-07-29T17:05:12;22.60;99.90
7622;DHT22;3852;52.284;8.032;2022-07-29T17:07:39;22.60;99.90
7622;DHT22;3852;52.284;8.032;2022-07-29T17:10:06;22.60;99.90
7622;DHT22;3852;52.284;8.032;2022-07-29T17:12:36;22.60;99.90
7622;DHT22;3852;52.284;8.032;2022-07-29T17:15:08;22.50;99.90